Terminal Aerodrome Forecast
Issued by NWS Wilmington, OH

Current Version | Previous Version | Graphics & Text | Print | Product List | Glossary On
Versions: 1 2 3 4 5 6 7 8 9 10 11 12 13 14 15 16 17 18 19 20 21 22 23 24 25 26 27
000
FTUS41 KILN 201728
TAFCVG
TAF
KCVG 201728Z 2018/2124 14009KT P6SM SCT100 OVC200
     FM202300 18009KT 4SM -TSRA BR OVC035CB
     FM210200 VRB03KT 4SM -SHRA BR OVC015
     FM210400 36005KT 2SM BR OVC007
     FM211200 35009KT 5SM BR OVC015=

USA.gov is the U.S. government's official web portal to all federal, state and local government web resources and services.